KSDF Airport Diagram

We have created a template for each of the higher traffic airports in the vZID airspace. They include KCMH, KCRW, KCVG, KDAY, KIND, KLEX and KSDF. You wil find usefull information including the airport diagram, weather, and specific airport procedures.

KSDF Weather

[Source: ADDS]
METAR
KSDF 190556Z 31003KT 10SM CLR 06/03 A3038 RMK AO2 SLP287 T00560028 10122 20056 56011 =
KSDF 190528Z 1906/2012 VRB03KT P6SM FEW250 FM191600 22008KT P6SM BKN120 FM192200 24010KT 6SM -RA OVC040 TEMPO 1922/2002 25010G20KT FM200200 25012KT 5SM -RA BR BKN015
TAF
KSDF 190528Z 1906/2012 VRB03KT P6SM FEW250 FM191600 22008KT P6SM BKN120 FM192200 24010KT 6SM -RA OVC040 TEMPO 1922/2002 25010G20KT FM200200 25012KT 5SM -RA BR BKN015 =

KSDF Operations

Calm Wind Configuration is runways 17L and 17R.

Runway 17L typically departs north and east.

Runway 17R typicall departs south and west.

 

JSN Epic template designed by JoomlaShine.com